Bob Hope Airport
KBUR : now visible

Airfield :











YOU CAN JOIN US ON...

 
LOGIN :

Register | Disclaimer

   EN    FR    IT 

 









Legend :    VFR   Marginal VFR   IFR   Intensive IFR   Very Intensive IFR
Visi :
Ceiling :
>= 8 km
>= 3000ft
5 to 8 km
1000 to 3000 ft
1500m to 5 km
500 to 1000 ft
800 to 1500m
200 to 500 ft
< 800m
< 200 ft
Symbols :   Thunderstorms  Fog  Heavy snow  Heavy precipitations  Wind > 20 kt






- Airport Elevation : 778 ft
- IATA code : BUR


KBUR - Bob Hope

CURRENT METAR :
  • 161153Z 00000KT 10SM CLR 06/M03 A3015 RMK AO2 SLP206 T00561028 10094 20050 51008

EXPIRED METARs :
  • 161053Z 24006KT 10SM CLR 06/M03 A3015 RMK AO2 SLP204 T00611028
  • 160953Z 00000KT 10SM CLR 06/M01 A3014 RMK AO2 SLP202 T00561011

TAF KBUR
Valid from the 16 at 12:00 until the 17 at 12:00 UTC


161123Z 1612/1712 VRB04KT P6SM SKC WS010/03030KT
FM161600 04015G23KT P6SM SKC
FM170200 02008KT P6SM SKC



MET'MAP, your aeronautical weather chart ! - Copyright ORBIFLY December 2007 - Disclaimer

ORBIFLY MET'MAP TEAM :

Programming & Development : Alexandra Zaïnal
Concept & original design : Baudouin d'Aumeries
Assistance for programming : Marc-Olivier Méhu
Technical & hardware support : Manuel Goepfert

Contact : metmap@orbifly.com




SOURCES & CREDITS :

   NOAA       Earth
Advisory